createdAt,value
2022-12-13T00:04:28.334Z,59.40
2022-12-13T00:10:43.137Z,67.32
2022-12-13T00:20:18.687Z,55.55
2022-12-13T00:23:22.493Z,58.10
2022-12-13T00:29:19.165Z,54.33
2022-12-13T00:32:00.688Z,63.10
2022-12-13T00:41:05.893Z,52.55
2022-12-13T00:43:58.182Z,60.38
2022-12-13T00:46:42.257Z,53.75
2022-12-13T00:49:36.976Z,58.17
2022-12-13T00:52:19.416Z,52.80
2022-12-13T00:55:07.167Z,52.40
2022-12-13T01:01:03.303Z,55.22
2022-12-13T01:04:06.356Z,51.63
2022-12-13T01:06:57.629Z,56.25
2022-12-13T01:12:56.454Z,55.13
2022-12-13T01:16:00.170Z,53.60
2022-12-13T01:18:50.777Z,56.72
2022-12-13T01:21:51.889Z,51.13
2022-12-13T01:27:14.793Z,54.40
2022-12-13T01:30:14.874Z,53.60
2022-12-13T01:33:14.279Z,53.78
2022-12-13T01:35:44.007Z,50.22
2022-12-13T01:38:26.222Z,64.20
2022-12-13T01:41:01.877Z,50.33
2022-12-13T01:44:31.526Z,48.47
2022-12-13T01:50:30.921Z,51.45
2022-12-13T01:55:52.470Z,54.13
2022-12-13T02:01:36.911Z,48.92
2022-12-13T02:04:10.377Z,53.53
2022-12-13T02:07:01.112Z,51.33
2022-12-13T02:09:40.389Z,48.80
2022-12-13T02:12:14.444Z,49.80
2022-12-13T02:14:51.017Z,51.72
2022-12-13T02:17:36.107Z,49.78
2022-12-13T02:20:54.336Z,48.58
2022-12-13T02:24:15.194Z,52.15
2022-12-13T02:27:30.635Z,32.17
2022-12-13T02:30:39.043Z,45.63
2022-12-13T02:33:32.400Z,48.05
2022-12-13T02:36:19.684Z,46.65
2022-12-13T02:38:54.791Z,50.20
2022-12-13T02:41:33.049Z,50.00
2022-12-13T02:44:22.253Z,45.35
2022-12-13T02:47:00.856Z,53.58
2022-12-13T02:49:39.819Z,48.85
2022-12-13T02:52:22.344Z,49.20
2022-12-13T02:55:08.121Z,45.88
2022-12-13T02:57:50.756Z,47.45
2022-12-13T03:00:32.350Z,47.83
2022-12-13T03:03:21.275Z,49.75
2022-12-13T03:06:01.041Z,47.35
2022-12-13T03:08:47.621Z,47.85
2022-12-13T03:11:30.482Z,49.42
2022-12-13T03:14:11.743Z,44.65
2022-12-13T03:16:44.041Z,46.13
2022-12-13T03:19:14.105Z,47.17
2022-12-13T03:22:05.531Z,49.42
2022-12-13T03:24:34.683Z,41.65
2022-12-13T03:27:09.864Z,42.28
2022-12-13T03:29:39.558Z,46.20
2022-12-13T03:32:06.410Z,55.20
2022-12-13T03:35:00.645Z,42.05
2022-12-13T03:37:37.785Z,48.55
2022-12-13T03:40:30.751Z,47.65
2022-12-13T03:43:13.455Z,48.58
2022-12-13T03:45:49.686Z,47.78
2022-12-13T03:48:23.917Z,48.80
2022-12-13T03:50:56.827Z,44.17
2022-12-13T03:53:33.242Z,44.63
2022-12-13T03:56:09.428Z,47.88
2022-12-13T03:58:38.558Z,42.17
2022-12-13T04:01:15.432Z,44.47
2022-12-13T04:03:47.016Z,39.20
2022-12-13T04:06:33.060Z,45.15
2022-12-13T04:09:00.460Z,41.65
2022-12-13T04:11:35.412Z,42.47
2022-12-13T04:14:02.490Z,42.83
2022-12-13T04:16:38.734Z,42.92
2022-12-13T04:19:13.681Z,42.72
2022-12-13T04:21:44.097Z,47.30
2022-12-13T04:24:16.555Z,45.53
2022-12-13T04:26:50.404Z,41.90
2022-12-13T04:32:26.772Z,49.83
2022-12-13T04:35:00.859Z,46.58
2022-12-13T04:37:46.934Z,52.58
2022-12-13T04:40:25.905Z,57.72
2022-12-13T04:42:54.279Z,44.75
2022-12-13T04:45:22.175Z,46.10
2022-12-13T04:47:48.969Z,43.95
2022-12-13T04:50:21.991Z,41.05
2022-12-13T04:53:00.309Z,41.42
2022-12-13T04:55:27.948Z,49.83
2022-12-13T04:58:01.196Z,45.95
2022-12-13T05:00:30.599Z,45.55
2022-12-13T05:02:59.218Z,47.38
2022-12-13T05:05:28.761Z,41.28
2022-12-13T05:08:03.210Z,41.63
2022-12-13T05:10:37.775Z,43.78
2022-12-13T05:13:08.232Z,39.38
2022-12-13T05:15:35.112Z,39.22
2022-12-13T05:18:10.129Z,46.17
2022-12-13T05:20:41.540Z,39.22
2022-12-13T05:23:09.852Z,43.42
2022-12-13T05:25:36.807Z,44.13
2022-12-13T05:28:28.640Z,45.78
2022-12-13T05:30:51.300Z,38.03
2022-12-13T05:33:18.446Z,43.00
2022-12-13T05:35:45.490Z,41.47
2022-12-13T05:38:13.768Z,45.78
2022-12-13T05:40:40.963Z,44.53
2022-12-13T05:43:21.822Z,37.60
2022-12-13T05:48:24.652Z,42.45
2022-12-13T05:51:11.185Z,45.60
2022-12-13T05:53:42.558Z,46.47
2022-12-13T05:56:14.579Z,47.08
2022-12-13T05:58:53.496Z,31.05
2022-12-13T06:01:20.863Z,39.58
2022-12-13T06:03:53.774Z,36.95
2022-12-13T06:06:23.119Z,43.38
2022-12-13T06:08:51.453Z,46.72
2022-12-13T06:11:31.126Z,41.40
2022-12-13T06:14:00.640Z,40.80
2022-12-13T06:16:28.721Z,45.70
2022-12-13T06:19:04.146Z,44.85
2022-12-13T06:21:41.788Z,41.10
2022-12-13T06:24:24.031Z,42.63
2022-12-13T06:26:51.723Z,43.08
2022-12-13T06:29:23.149Z,45.60
2022-12-13T06:32:03.087Z,36.15
2022-12-13T06:34:32.850Z,41.10
2022-12-13T06:37:01.046Z,43.05
2022-12-13T06:39:32.996Z,39.88
2022-12-13T06:42:01.246Z,43.80
2022-12-13T06:44:28.245Z,45.53
2022-12-13T06:47:11.914Z,47.47
2022-12-13T06:49:41.543Z,46.13
2022-12-13T06:52:13.457Z,45.10
2022-12-13T06:54:42.088Z,44.30
2022-12-13T06:57:10.907Z,46.25
2022-12-13T06:59:37.797Z,41.25
2022-12-13T07:02:04.894Z,45.03
2022-12-13T07:04:35.010Z,41.83
2022-12-13T07:07:25.108Z,43.92
2022-12-13T07:09:56.416Z,57.38
2022-12-13T07:12:36.040Z,39.33
2022-12-13T07:15:16.193Z,46.28
2022-12-13T07:17:51.965Z,31.92
2022-12-13T07:20:44.462Z,39.42
2022-12-13T07:23:15.537Z,43.20
2022-12-13T07:25:51.221Z,45.08
2022-12-13T07:28:18.149Z,52.47
2022-12-13T07:30:44.912Z,48.97
2022-12-13T07:33:11.721Z,51.83
2022-12-13T07:35:55.509Z,52.58
2022-12-13T07:38:22.816Z,46.53
2022-12-13T07:41:59.836Z,46.67
2022-12-13T07:44:59.670Z,49.28
2022-12-13T07:50:37.370Z,43.05
2022-12-13T07:53:05.727Z,49.72
2022-12-13T07:55:42.367Z,47.20
2022-12-13T07:58:21.672Z,47.22
2022-12-13T08:00:51.432Z,46.92
2022-12-13T08:03:24.640Z,46.67
2022-12-13T08:05:59.055Z,50.33
2022-12-13T08:08:49.640Z,43.38
2022-12-13T08:11:23.920Z,43.55
2022-12-13T08:13:58.734Z,45.22
2022-12-13T08:16:34.099Z,54.67
2022-12-13T08:19:08.989Z,52.72
2022-12-13T08:25:07.722Z,57.75
2022-12-13T08:27:45.444Z,54.38
2022-12-13T08:30:18.915Z,54.33
2022-12-13T08:34:24.391Z,59.25
2022-12-13T08:42:36.098Z,54.80
2022-12-13T08:45:52.085Z,55.03
2022-12-13T08:48:23.182Z,58.38
2022-12-13T08:54:31.024Z,58.80
2022-12-13T08:57:20.474Z,57.53
2022-12-13T09:00:11.957Z,52.05
2022-12-13T09:14:52.958Z,62.78
2022-12-13T09:21:11.296Z,65.38
2022-12-13T09:23:45.727Z,64.68
2022-12-13T09:26:27.101Z,64.03
2022-12-13T09:35:50.133Z,68.05
2022-12-13T09:38:20.496Z,62.65
2022-12-13T09:40:58.300Z,59.78
2022-12-13T09:44:04.003Z,64.95
2022-12-13T09:49:52.584Z,56.85
2022-12-13T09:55:30.693Z,60.95
2022-12-13T10:05:48.989Z,67.28
2022-12-13T10:08:32.296Z,53.50
2022-12-13T10:11:14.020Z,55.85
2022-12-13T10:14:11.491Z,66.53
2022-12-13T10:17:15.643Z,60.15
2022-12-13T10:19:52.164Z,40.42
2022-12-13T10:22:41.853Z,63.03
2022-12-13T10:25:45.118Z,57.95
2022-12-13T10:28:14.442Z,59.30
2022-12-13T10:30:52.594Z,68.32
2022-12-13T10:33:24.386Z,61.50
2022-12-13T10:36:09.866Z,58.83
2022-12-13T10:38:38.981Z,63.65
2022-12-13T10:41:26.902Z,62.88
2022-12-13T10:44:18.494Z,56.88
2022-12-13T10:46:52.885Z,65.05
2022-12-13T10:49:22.622Z,68.60
2022-12-13T10:51:50.201Z,61.85
2022-12-13T10:54:27.811Z,61.70
2022-12-13T10:56:57.843Z,59.13
2022-12-13T10:59:30.203Z,61.35
2022-12-13T11:01:57.102Z,57.10
2022-12-13T11:04:30.155Z,62.83
2022-12-13T11:06:58.480Z,55.00
2022-12-13T11:09:29.039Z,52.10
2022-12-13T11:12:14.901Z,62.08
2022-12-13T11:14:55.824Z,57.20
2022-12-13T11:17:30.147Z,53.67
2022-12-13T11:20:00.380Z,52.70
2022-12-13T11:22:37.978Z,55.13
2022-12-13T11:25:31.279Z,49.55
2022-12-13T11:28:26.864Z,50.60
2022-12-13T11:31:07.876Z,59.78
2022-12-13T11:33:48.395Z,55.80
2022-12-13T11:36:30.331Z,53.00
2022-12-13T11:43:04.840Z,55.28
2022-12-13T11:46:32.337Z,52.95
2022-12-13T11:52:45.559Z,56.53
2022-12-13T12:13:50.786Z,43.20
2022-12-13T12:34:56.816Z,24.70
2022-12-13T12:44:34.056Z,28.48
2022-12-13T14:10:36.771Z,24.98
2022-12-13T14:17:14.851Z,29.60
2022-12-13T14:20:15.794Z,28.05
2022-12-13T14:22:50.956Z,30.13
2022-12-13T14:25:55.366Z,26.92
2022-12-13T14:28:35.320Z,30.58
2022-12-13T14:31:03.921Z,32.13
2022-12-13T14:33:39.232Z,28.50
2022-12-13T14:36:18.739Z,34.45
2022-12-13T14:41:17.901Z,33.13
2022-12-13T14:43:50.229Z,35.63
2022-12-13T14:46:54.101Z,37.55
2022-12-13T14:49:22.274Z,35.28
2022-12-13T14:51:56.554Z,40.42
2022-12-13T14:54:45.468Z,43.05
2022-12-13T15:02:39.208Z,35.80
2022-12-13T15:04:16.895Z,35.75
2022-12-13T15:09:38.276Z,38.80
2022-12-13T15:12:23.857Z,40.85
2022-12-13T15:14:57.638Z,39.55
2022-12-13T15:17:33.874Z,45.28
2022-12-13T15:20:27.151Z,42.17
2022-12-13T15:24:01.046Z,42.10
2022-12-13T15:36:28.514Z,40.90
2022-12-13T15:39:01.367Z,42.55
2022-12-13T15:41:31.475Z,42.08
2022-12-13T15:47:06.420Z,45.83
2022-12-13T15:49:44.333Z,43.35
2022-12-13T15:52:26.394Z,55.00
2022-12-13T15:54:57.815Z,52.38
2022-12-13T15:57:41.493Z,43.35
2022-12-13T16:00:31.666Z,57.38
2022-12-13T16:03:11.641Z,47.50
2022-12-13T16:06:33.090Z,51.13
2022-12-13T16:09:05.144Z,47.67
2022-12-13T16:11:38.426Z,52.35
2022-12-13T16:15:09.298Z,50.58
2022-12-13T17:05:26.924Z,51.97
2022-12-13T17:49:22.201Z,56.83
2022-12-13T18:04:54.869Z,60.45
2022-12-13T18:22:59.340Z,56.92
2022-12-13T18:29:55.412Z,52.22
2022-12-13T18:31:59.181Z,55.30
2022-12-13T18:58:48.661Z,60.22
2022-12-13T19:12:27.537Z,55.72
2022-12-13T19:22:47.338Z,54.38
2022-12-13T19:43:57.818Z,60.28
2022-12-13T19:50:24.693Z,65.68
2022-12-13T19:53:01.723Z,64.05
2022-12-13T19:55:54.946Z,60.00
2022-12-13T20:01:35.440Z,64.90
2022-12-13T20:04:27.142Z,65.80
2022-12-13T20:07:28.639Z,59.10
2022-12-13T20:10:19.079Z,58.63
2022-12-13T20:12:52.762Z,44.23
2022-12-13T20:15:19.957Z,64.32
2022-12-13T20:18:14.834Z,58.80
2022-12-13T20:21:12.984Z,57.60
2022-12-13T20:26:42.006Z,64.47
2022-12-13T20:29:14.223Z,55.55
2022-12-13T20:31:55.526Z,64.43
2022-12-13T20:34:28.338Z,64.18
2022-12-13T20:36:58.161Z,57.45
2022-12-13T20:39:34.669Z,57.05
2022-12-13T20:42:16.106Z,54.45
2022-12-13T20:44:43.279Z,60.58
2022-12-13T20:47:17.023Z,60.35
2022-12-13T20:49:49.496Z,68.13
2022-12-13T20:52:19.727Z,62.83
2022-12-13T20:54:50.865Z,44.13
2022-12-13T20:57:25.496Z,58.05
2022-12-13T20:59:55.268Z,61.70
2022-12-13T21:02:33.420Z,57.47
2022-12-13T21:05:07.617Z,59.03
2022-12-13T21:07:42.401Z,61.65
2022-12-13T21:27:15.466Z,58.38
2022-12-13T21:33:27.886Z,58.95
2022-12-13T21:37:31.202Z,61.88
2022-12-13T21:40:33.649Z,62.17
2022-12-13T21:43:39.219Z,61.50
2022-12-13T21:49:31.132Z,63.30
2022-12-13T21:52:49.797Z,62.60
2022-12-13T21:56:02.250Z,62.47
2022-12-13T21:59:02.374Z,60.63
2022-12-13T22:02:08.771Z,64.43
2022-12-13T22:05:19.164Z,64.32
2022-12-13T22:08:35.053Z,69.82
2022-12-13T22:11:48.493Z,57.03
2022-12-13T22:17:47.108Z,63.92
2022-12-13T22:20:29.910Z,64.30
2022-12-13T22:29:39.002Z,70.10
2022-12-13T22:36:17.116Z,60.08
2022-12-13T22:39:32.774Z,70.90
2022-12-13T22:42:55.790Z,63.42
2022-12-13T22:45:48.722Z,64.78
2022-12-13T22:51:30.242Z,60.45
2022-12-13T22:54:35.256Z,62.15
2022-12-13T22:57:07.669Z,64.70
2022-12-13T22:59:57.292Z,64.57
2022-12-13T23:02:40.109Z,68.32
2022-12-13T23:05:29.196Z,65.75
2022-12-13T23:08:13.953Z,63.38
2022-12-13T23:11:08.979Z,66.00
2022-12-13T23:16:52.666Z,63.47
2022-12-13T23:20:03.424Z,44.88
2022-12-13T23:23:37.316Z,70.30
2022-12-13T23:26:17.902Z,62.20
2022-12-13T23:29:10.594Z,58.28
2022-12-13T23:31:49.425Z,58.33
2022-12-13T23:34:22.357Z,66.88
2022-12-13T23:37:29.518Z,69.18
2022-12-13T23:40:45.387Z,58.65
2022-12-13T23:46:49.263Z,56.17
2022-12-13T23:49:23.532Z,56.35
2022-12-13T23:51:58.008Z,57.70
2022-12-13T23:54:31.416Z,58.90
